Overview Statistics Trail Chart Weather Telemetry Raw packets
 

This is the latest recevied weather packets stored in our database for station/object IV3CGM-13. If no packets are shown the sender has not sent any weather packets the latest 10 day(s).

<< 46 47 48 49 50 >>
Time Temp. Humidity Pressure Rain* Wind** Luminosity Snow
1787740511 26.11° C 61% 1017.6 hPa 0 mm - 787 W/m² -
1787739824 25.56° C 60% 1017.7 hPa 0 mm - 766 W/m² -
1787739123 26.11° C 59% 1017.7 hPa 0 mm - 754 W/m² -
1787738387 26.11° C 57% 1017.8 hPa 0 mm - 746 W/m² -
1787737673 26.11° C 58% 1017.9 hPa 0 mm - 744 W/m² -
1787736961 26.11° C 58% 1017.9 hPa 0 mm - 734 W/m² -
1787736274 25.56° C 59% 1017.7 hPa 0 mm - 722 W/m² -
1787735574 25.56° C 61% 1017.8 hPa 0 mm - 695 W/m² -
1787734886 25° C 63% 1017.8 hPa 0 mm - 666 W/m² -
1787734186 25.56° C 57% 1017.7 hPa 0 mm - 636 W/m² -
1787733499 25.56° C 56% 1017.7 hPa 0 mm - 605 W/m² -
1787732799 25.56° C 59% 1017.7 hPa 0 mm - 577 W/m² -
1787732099 25° C 64% 1017.5 hPa 0 mm - 556 W/m² -
1787731411 25.56° C 61% 1017.5 hPa 0 mm - 517 W/m² -
1787730723 25° C 66% 1017.4 hPa 0 mm - 482 W/m² -
1787729987 24.44° C 64% 1017.4 hPa 0 mm - 426 W/m² -
1787729286 24.44° C 65% 1017.4 hPa 0 mm - 403 W/m² -
1787728598 23.89° C 68% 1017.3 hPa 0 mm - 365 W/m² -
1787727911 23.33° C 68% 1017.2 hPa 0 mm - 328 W/m² -
1787727224 23.89° C 71% 1017.2 hPa 0 mm - 290 W/m² -
1787726487 23.89° C 69% 1017 hPa 0 mm - 190 W/m² -
1787725786 22.78° C 71% 1017 hPa 0 mm - 68 W/m² -
1787725099 22.22° C 75% 1016.9 hPa 0 mm - 53 W/m² -
1787724411 21.11° C 81% 1016.8 hPa 0 mm - 52 W/m² -
1787723724 20.56° C 84% 1016.8 hPa 0 mm - 113 W/m² -

* Rain latest hour (hover to see other rain measurements)
** Current wind speed in m/s (hover to see current wind gust speed)